Cloncurry, Australia
Current Conditions -  °F | °C
As of 2:00 PM on Monday 26 Jan 2015 (Local Time) from YBMA Reporting Station
Clear Clear  
Wind Chill: 37°   Ceiling: Unl
Heat Index: 37°   Visibility: 6mi
Dew Point:   Wind: 8mph
Humidity: 13%   Direction: 110°ESE
Pressure: 29.74"   Gusts: NA
Location:  20.7°S, 140.51°E
Report Text: YBMA 260400Z 11007KT CAVOK 37/04 Q1007
Loading
Personal Weather Stations






























Interactive Weather Map New forecast layout! Learn more

10-Day Weather Forecast

Advertisements
Track Severe Weather on mobile